sensor_id;sensor_type;location;lat;lon;timestamp;pressure;altitude;pressure_sealevel;temperature;humidity
60049;BME280;66154;45.544;6.756;2024-03-22T00:04:28;87723.38;;;6.45;57.90
60049;BME280;66154;45.544;6.756;2024-03-22T00:09:29;87712.56;;;6.43;56.96
60049;BME280;66154;45.544;6.756;2024-03-22T00:14:29;87720.00;;;6.41;57.88
60049;BME280;66154;45.544;6.756;2024-03-22T00:19:30;87714.78;;;6.41;58.72
60049;BME280;66154;45.544;6.756;2024-03-22T00:24:30;87722.63;;;6.41;61.98
60049;BME280;66154;45.544;6.756;2024-03-22T00:29:31;87712.94;;;6.41;59.00
60049;BME280;66154;45.544;6.756;2024-03-22T00:34:31;87715.16;;;6.43;58.35
60049;BME280;66154;45.544;6.756;2024-03-22T00:39:32;87705.09;;;6.45;58.26
60049;BME280;66154;45.544;6.756;2024-03-22T00:44:32;87702.84;;;6.43;57.17
60049;BME280;66154;45.544;6.756;2024-03-22T00:49:33;87697.63;;;6.43;58.03
60049;BME280;66154;45.544;6.756;2024-03-22T00:54:33;87701.38;;;6.39;58.28
60049;BME280;66154;45.544;6.756;2024-03-22T00:59:34;87698.03;;;6.35;58.60
60049;BME280;66154;45.544;6.756;2024-03-22T01:04:34;87685.72;;;6.32;57.75
60049;BME280;66154;45.544;6.756;2024-03-22T01:09:35;87681.25;;;6.29;58.14
60049;BME280;66154;45.544;6.756;2024-03-22T01:14:36;87677.53;;;6.26;58.45
60049;BME280;66154;45.544;6.756;2024-03-22T01:19:36;87673.03;;;6.27;58.57
60049;BME280;66154;45.544;6.756;2024-03-22T01:24:37;87677.91;;;6.32;57.87
60049;BME280;66154;45.544;6.756;2024-03-22T01:29:37;87673.03;;;6.34;57.72
60049;BME280;66154;45.544;6.756;2024-03-22T01:34:38;87669.28;;;6.38;58.78
60049;BME280;66154;45.544;6.756;2024-03-22T01:39:38;87666.31;;;6.36;58.38
60049;BME280;66154;45.544;6.756;2024-03-22T01:44:39;87662.59;;;6.34;59.11
60049;BME280;66154;45.544;6.756;2024-03-22T01:49:39;87647.31;;;6.29;59.66
60049;BME280;66154;45.544;6.756;2024-03-22T01:54:40;87643.59;;;6.26;57.61
60049;BME280;66154;45.544;6.756;2024-03-22T01:59:41;87643.59;;;6.26;57.29
60049;BME280;66154;45.544;6.756;2024-03-22T02:04:41;87641.00;;;6.26;59.16
60049;BME280;66154;45.544;6.756;2024-03-22T02:09:42;87641.00;;;6.26;59.66
60049;BME280;66154;45.544;6.756;2024-03-22T02:14:43;87629.44;;;6.24;58.57
60049;BME280;66154;45.544;6.756;2024-03-22T02:19:44;87636.53;;;6.20;59.62
60049;BME280;66154;45.544;6.756;2024-03-22T02:24:44;87628.69;;;6.20;57.69
60049;BME280;66154;45.544;6.756;2024-03-22T02:29:45;87628.31;;;6.18;56.63
60049;BME280;66154;45.544;6.756;2024-03-22T02:34:45;87623.88;;;6.15;58.05
60049;BME280;66154;45.544;6.756;2024-03-22T02:39:46;87623.50;;;6.13;60.04
60049;BME280;66154;45.544;6.756;2024-03-22T02:44:46;87612.69;;;6.11;58.53
60049;BME280;66154;45.544;6.756;2024-03-22T02:49:47;87610.84;;;6.08;58.69
60049;BME280;66154;45.544;6.756;2024-03-22T02:54:47;87603.03;;;6.04;59.60
60049;BME280;66154;45.544;6.756;2024-03-22T02:59:48;87599.69;;;6.00;58.25
60049;BME280;66154;45.544;6.756;2024-03-22T03:04:48;87597.81;;;6.01;57.28
60049;BME280;66154;45.544;6.756;2024-03-22T03:09:49;87586.66;;;5.97;59.99
60049;BME280;66154;45.544;6.756;2024-03-22T03:14:49;87576.22;;;5.93;56.88
60049;BME280;66154;45.544;6.756;2024-03-22T03:19:50;87573.63;;;5.90;58.64
60049;BME280;66154;45.544;6.756;2024-03-22T03:24:50;87576.97;;;5.87;59.73
60049;BME280;66154;45.544;6.756;2024-03-22T03:29:51;87579.22;;;5.85;58.84
60049;BME280;66154;45.544;6.756;2024-03-22T03:34:51;87574.75;;;5.82;59.32
60049;BME280;66154;45.544;6.756;2024-03-22T03:39:52;87583.31;;;5.79;59.02
60049;BME280;66154;45.544;6.756;2024-03-22T03:44:52;87564.31;;;5.75;58.57
60049;BME280;66154;45.544;6.756;2024-03-22T03:49:53;87566.56;;;5.73;59.16
60049;BME280;66154;45.544;6.756;2024-03-22T03:54:53;87572.16;;;5.71;58.49
60049;BME280;66154;45.544;6.756;2024-03-22T03:59:54;87562.47;;;5.68;59.05
60049;BME280;66154;45.544;6.756;2024-03-22T04:04:54;87556.91;;;5.63;59.36
60049;BME280;66154;45.544;6.756;2024-03-22T04:09:55;87561.38;;;5.59;58.45
60049;BME280;66154;45.544;6.756;2024-03-22T04:14:55;87551.72;;;5.52;57.52
60049;BME280;66154;45.544;6.756;2024-03-22T04:19:56;87536.09;;;5.45;59.63
60049;BME280;66154;45.544;6.756;2024-03-22T04:24:56;87534.59;;;5.40;57.07
60049;BME280;66154;45.544;6.756;2024-03-22T04:29:57;87533.50;;;5.34;59.26
60049;BME280;66154;45.544;6.756;2024-03-22T04:34:58;87529.78;;;5.32;59.01
60049;BME280;66154;45.544;6.756;2024-03-22T04:39:59;87528.28;;;5.27;59.09
60049;BME280;66154;45.544;6.756;2024-03-22T04:44:59;87517.88;;;5.24;58.98
60049;BME280;66154;45.544;6.756;2024-03-22T04:50:00;87517.88;;;5.24;58.13
60049;BME280;66154;45.544;6.756;2024-03-22T04:55:01;87527.19;;;5.25;57.97
60049;BME280;66154;45.544;6.756;2024-03-22T05:00:02;87526.44;;;5.24;57.85
60049;BME280;66154;45.544;6.756;2024-03-22T05:05:03;87523.09;;;5.24;59.25
60049;BME280;66154;45.544;6.756;2024-03-22T05:10:04;87519.00;;;5.23;60.37
60049;BME280;66154;45.544;6.756;2024-03-22T05:15:06;87522.72;;;5.22;58.61
60049;BME280;66154;45.544;6.756;2024-03-22T05:20:07;87516.75;;;5.21;58.00
60049;BME280;66154;45.544;6.756;2024-03-22T05:25:10;87523.84;;;5.24;57.98
60049;BME280;66154;45.544;6.756;2024-03-22T05:30:13;87520.09;;;5.29;58.94
60049;BME280;66154;45.544;6.756;2024-03-22T05:35:13;87516.75;;;5.32;57.09
60049;BME280;66154;45.544;6.756;2024-03-22T05:40:15;87519.72;;;5.37;56.98
60049;BME280;66154;45.544;6.756;2024-03-22T05:45:16;87514.88;;;5.43;57.60
60049;BME280;66154;45.544;6.756;2024-03-22T05:50:16;87519.69;;;5.48;57.53
60049;BME280;66154;45.544;6.756;2024-03-22T05:55:17;87523.03;;;5.52;57.54
60049;BME280;66154;45.544;6.756;2024-03-22T06:00:18;87520.78;;;5.57;57.94
60049;BME280;66154;45.544;6.756;2024-03-22T06:05:18;87516.63;;;5.67;58.57
60049;BME280;66154;45.544;6.756;2024-03-22T06:10:19;87508.41;;;5.76;58.62
60049;BME280;66154;45.544;6.756;2024-03-22T06:15:19;87508.41;;;5.86;58.86
60049;BME280;66154;45.544;6.756;2024-03-22T06:20:21;87514.69;;;5.99;58.63
60049;BME280;66154;45.544;6.756;2024-03-22T06:25:22;87522.06;;;6.11;58.75
60049;BME280;66154;45.544;6.756;2024-03-22T06:30:22;87530.97;;;6.24;59.36
60049;BME280;66154;45.544;6.756;2024-03-22T06:35:23;87529.81;;;6.36;59.13
60049;BME280;66154;45.544;6.756;2024-03-22T06:40:24;87528.63;;;6.48;59.21
60049;BME280;66154;45.544;6.756;2024-03-22T06:45:24;87533.72;;;6.62;59.47
60049;BME280;66154;45.544;6.756;2024-03-22T06:50:24;87530.66;;;6.74;59.40
60049;BME280;66154;45.544;6.756;2024-03-22T06:55:25;87534.31;;;6.87;59.68
60049;BME280;66154;45.544;6.756;2024-03-22T07:00:25;87527.13;;;7.01;58.75
60049;BME280;66154;45.544;6.756;2024-03-22T07:05:26;87522.91;;;7.14;58.77
60049;BME280;66154;45.544;6.756;2024-03-22T07:10:27;87520.16;;;7.28;57.67
60049;BME280;66154;45.544;6.756;2024-03-22T07:15:31;87525.66;;;7.41;58.04
60049;BME280;66154;45.544;6.756;2024-03-22T07:20:32;87520.69;;;7.54;57.71
60049;BME280;66154;45.544;6.756;2024-03-22T07:25:33;87526.91;;;7.67;57.87
60049;BME280;66154;45.544;6.756;2024-03-22T07:30:34;87524.88;;;7.81;58.04
60049;BME280;66154;45.544;6.756;2024-03-22T07:35:35;87522.06;;;7.99;56.95
60049;BME280;66154;45.544;6.756;2024-03-22T07:40:36;87523.00;;;8.15;56.82
60049;BME280;66154;45.544;6.756;2024-03-22T07:45:37;87531.09;;;8.28;58.06
60049;BME280;66154;45.544;6.756;2024-03-22T07:50:37;87530.69;;;8.30;57.57
60049;BME280;66154;45.544;6.756;2024-03-22T07:55:38;87529.47;;;8.38;56.98
60049;BME280;66154;45.544;6.756;2024-03-22T08:00:38;87530.09;;;8.49;56.62
60049;BME280;66154;45.544;6.756;2024-03-22T08:05:39;87535.63;;;8.54;56.53
60049;BME280;66154;45.544;6.756;2024-03-22T08:10:39;87542.34;;;8.55;56.69
60049;BME280;66154;45.544;6.756;2024-03-22T08:15:41;87541.56;;;8.58;57.34
60049;BME280;66154;45.544;6.756;2024-03-22T08:20:44;87538.50;;;8.63;56.84
60049;BME280;66154;45.544;6.756;2024-03-22T08:25:44;87543.69;;;8.67;57.01
60049;BME280;66154;45.544;6.756;2024-03-22T08:30:44;87537.66;;;8.70;57.07
60049;BME280;66154;45.544;6.756;2024-03-22T08:35:45;87533.13;;;8.74;56.16
60049;BME280;66154;45.544;6.756;2024-03-22T08:40:45;87534.22;;;8.76;56.56
60049;BME280;66154;45.544;6.756;2024-03-22T08:45:46;87529.31;;;8.78;55.92
60049;BME280;66154;45.544;6.756;2024-03-22T08:50:46;87533.38;;;8.83;55.77
60049;BME280;66154;45.544;6.756;2024-03-22T08:55:48;87529.13;;;8.92;54.55
60049;BME280;66154;45.544;6.756;2024-03-22T09:00:48;87530.44;;;9.04;56.30
60049;BME280;66154;45.544;6.756;2024-03-22T09:05:52;87528.41;;;9.15;56.05
60049;BME280;66154;45.544;6.756;2024-03-22T09:10:53;87527.38;;;9.32;56.35
60049;BME280;66154;45.544;6.756;2024-03-22T09:15:57;87523.31;;;9.51;56.56
60049;BME280;66154;45.544;6.756;2024-03-22T09:20:58;87522.31;;;9.68;55.75
60049;BME280;66154;45.544;6.756;2024-03-22T09:25:59;87521.03;;;9.76;55.15
60049;BME280;66154;45.544;6.756;2024-03-22T09:31:08;87515.31;;;9.81;55.24
60049;BME280;66154;45.544;6.756;2024-03-22T09:36:09;87512.97;;;9.86;55.17
60049;BME280;66154;45.544;6.756;2024-03-22T09:41:09;87508.31;;;9.94;55.92
60049;BME280;66154;45.544;6.756;2024-03-22T09:46:12;87507.47;;;10.00;56.07
60049;BME280;66154;45.544;6.756;2024-03-22T09:51:16;87506.16;;;10.12;56.13
60049;BME280;66154;45.544;6.756;2024-03-22T09:56:18;87496.84;;;10.27;56.22
60049;BME280;66154;45.544;6.756;2024-03-22T10:01:21;87500.31;;;10.40;55.93
60049;BME280;66154;45.544;6.756;2024-03-22T10:06:23;87495.19;;;10.53;54.37
60049;BME280;66154;45.544;6.756;2024-03-22T10:11:26;87495.63;;;10.67;55.84
60049;BME280;66154;45.544;6.756;2024-03-22T10:16:27;87487.69;;;10.87;55.50
60049;BME280;66154;45.544;6.756;2024-03-22T10:21:27;87483.03;;;11.11;55.97
60049;BME280;66154;45.544;6.756;2024-03-22T10:26:29;87475.47;;;11.29;56.01
60049;BME280;66154;45.544;6.756;2024-03-22T10:31:34;87468.22;;;11.49;56.27
60049;BME280;66154;45.544;6.756;2024-03-22T10:36:35;87467.06;;;11.66;53.50
60049;BME280;66154;45.544;6.756;2024-03-22T10:41:35;87456.41;;;11.85;52.74
60049;BME280;66154;45.544;6.756;2024-03-22T10:46:37;87454.47;;;12.02;53.69
60049;BME280;66154;45.544;6.756;2024-03-22T10:51:38;87454.31;;;12.22;50.55
60049;BME280;66154;45.544;6.756;2024-03-22T10:56:39;87451.94;;;12.40;54.80
60049;BME280;66154;45.544;6.756;2024-03-22T11:01:44;87444.56;;;12.47;51.66
60049;BME280;66154;45.544;6.756;2024-03-22T11:06:49;87435.38;;;12.52;54.30
60049;BME280;66154;45.544;6.756;2024-03-22T11:11:52;87440.69;;;12.64;55.75
60049;BME280;66154;45.544;6.756;2024-03-22T11:16:52;87432.75;;;12.77;55.20
60049;BME280;66154;45.544;6.756;2024-03-22T11:21:54;87436.97;;;12.87;55.53
60049;BME280;66154;45.544;6.756;2024-03-22T11:26:54;87429.16;;;12.96;55.43
60049;BME280;66154;45.544;6.756;2024-03-22T11:31:55;87428.44;;;13.08;50.33
60049;BME280;66154;45.544;6.756;2024-03-22T11:36:56;87425.19;;;13.17;53.30
60049;BME280;66154;45.544;6.756;2024-03-22T11:41:56;87422.41;;;13.33;52.19
60049;BME280;66154;45.544;6.756;2024-03-22T11:46:57;87415.94;;;13.46;43.98
60049;BME280;66154;45.544;6.756;2024-03-22T11:51:57;87402.81;;;13.55;40.64
60049;BME280;66154;45.544;6.756;2024-03-22T11:56:58;87403.38;;;13.72;51.16
60049;BME280;66154;45.544;6.756;2024-03-22T12:01:58;87402.91;;;13.86;52.00
60049;BME280;66154;45.544;6.756;2024-03-22T12:06:59;87400.09;;;14.02;53.42
60049;BME280;66154;45.544;6.756;2024-03-22T12:12:00;87389.47;;;14.15;54.89
60049;BME280;66154;45.544;6.756;2024-03-22T12:17:04;87390.69;;;14.23;54.59
60049;BME280;66154;45.544;6.756;2024-03-22T12:22:04;87385.03;;;14.33;53.93
60049;BME280;66154;45.544;6.756;2024-03-22T12:27:06;87377.16;;;14.42;55.03
60049;BME280;66154;45.544;6.756;2024-03-22T12:32:07;87371.91;;;14.51;54.18
60049;BME280;66154;45.544;6.756;2024-03-22T12:37:09;87363.13;;;14.64;52.49
60049;BME280;66154;45.544;6.756;2024-03-22T12:42:09;87349.53;;;14.74;48.06
60049;BME280;66154;45.544;6.756;2024-03-22T12:47:10;87349.59;;;14.92;47.60
60049;BME280;66154;45.544;6.756;2024-03-22T12:52:11;87334.63;;;15.16;53.50
60049;BME280;66154;45.544;6.756;2024-03-22T12:57:11;87326.50;;;15.60;51.47
60049;BME280;66154;45.544;6.756;2024-03-22T13:02:12;87323.69;;;16.68;57.96
60049;BME280;66154;45.544;6.756;2024-03-22T13:07:13;87321.56;;;18.38;55.30
60049;BME280;66154;45.544;6.756;2024-03-22T13:12:13;87308.91;;;20.41;63.58
60049;BME280;66154;45.544;6.756;2024-03-22T13:17:14;87308.09;;;21.91;57.76
60049;BME280;66154;45.544;6.756;2024-03-22T13:22:14;87300.59;;;23.03;51.03
60049;BME280;66154;45.544;6.756;2024-03-22T13:27:18;87285.88;;;23.98;58.76
60049;BME280;66154;45.544;6.756;2024-03-22T13:32:20;87280.41;;;24.83;65.74
60049;BME280;66154;45.544;6.756;2024-03-22T13:37:21;87268.00;;;25.40;64.29
60049;BME280;66154;45.544;6.756;2024-03-22T13:42:21;87257.25;;;25.40;60.03
60049;BME280;66154;45.544;6.756;2024-03-22T13:47:22;87255.13;;;25.27;58.93
60049;BME280;66154;45.544;6.756;2024-03-22T13:52:22;87250.53;;;25.22;51.79
60049;BME280;66154;45.544;6.756;2024-03-22T13:57:23;87246.22;;;25.67;51.52
60049;BME280;66154;45.544;6.756;2024-03-22T14:02:26;87229.41;;;26.04;53.54
60049;BME280;66154;45.544;6.756;2024-03-22T14:07:26;87225.09;;;26.38;61.88
60049;BME280;66154;45.544;6.756;2024-03-22T14:12:27;87220.56;;;26.70;61.76
60049;BME280;66154;45.544;6.756;2024-03-22T14:17:28;87207.00;;;27.08;62.70
60049;BME280;66154;45.544;6.756;2024-03-22T14:22:28;87195.13;;;27.29;61.59
60049;BME280;66154;45.544;6.756;2024-03-22T14:27:29;87192.72;;;27.70;58.68
60049;BME280;66154;45.544;6.756;2024-03-22T14:32:29;87195.75;;;27.93;31.40
60049;BME280;66154;45.544;6.756;2024-03-22T14:37:30;87185.25;;;27.90;38.53
60049;BME280;66154;45.544;6.756;2024-03-22T14:42:31;87183.66;;;27.81;52.75
60049;BME280;66154;45.544;6.756;2024-03-22T14:47:31;87171.34;;;27.99;53.53
60049;BME280;66154;45.544;6.756;2024-03-22T14:52:32;87164.88;;;28.15;56.86
60049;BME280;66154;45.544;6.756;2024-03-22T14:57:32;87150.81;;;28.42;60.99
60049;BME280;66154;45.544;6.756;2024-03-22T15:02:36;87142.34;;;28.46;38.63
60049;BME280;66154;45.544;6.756;2024-03-22T15:07:37;87148.50;;;28.80;56.52
60049;BME280;66154;45.544;6.756;2024-03-22T15:12:37;87134.97;;;29.01;51.67
60049;BME280;66154;45.544;6.756;2024-03-22T15:17:39;87135.72;;;29.01;49.71
60049;BME280;66154;45.544;6.756;2024-03-22T15:22:39;87130.84;;;29.00;51.54
60049;BME280;66154;45.544;6.756;2024-03-22T15:27:40;87136.28;;;27.54;50.78
60049;BME280;66154;45.544;6.756;2024-03-22T15:32:41;87131.94;;;25.63;39.08
60049;BME280;66154;45.544;6.756;2024-03-22T15:37:41;87129.63;;;23.94;46.46
60049;BME280;66154;45.544;6.756;2024-03-22T15:42:42;87130.25;;;22.80;43.57
60049;BME280;66154;45.544;6.756;2024-03-22T15:47:43;87126.78;;;21.86;42.22
60049;BME280;66154;45.544;6.756;2024-03-22T15:52:45;87131.56;;;21.01;47.39
60049;BME280;66154;45.544;6.756;2024-03-22T15:57:46;87117.28;;;20.30;44.11
60049;BME280;66154;45.544;6.756;2024-03-22T16:02:48;87120.94;;;19.76;45.05
60049;BME280;66154;45.544;6.756;2024-03-22T16:07:51;87122.41;;;19.31;47.13
60049;BME280;66154;45.544;6.756;2024-03-22T16:12:52;87117.56;;;18.89;47.05
60049;BME280;66154;45.544;6.756;2024-03-22T16:17:52;87114.69;;;18.53;41.39
60049;BME280;66154;45.544;6.756;2024-03-22T16:22:54;87118.69;;;18.13;47.95
60049;BME280;66154;45.544;6.756;2024-03-22T16:27:55;87121.56;;;17.81;45.74
60049;BME280;66154;45.544;6.756;2024-03-22T16:32:57;87113.78;;;17.48;47.50
60049;BME280;66154;45.544;6.756;2024-03-22T16:37:58;87117.03;;;17.14;45.31
60049;BME280;66154;45.544;6.756;2024-03-22T16:42:58;87115.19;;;16.82;46.16
60049;BME280;66154;45.544;6.756;2024-03-22T16:47:59;87114.94;;;16.47;48.38
60049;BME280;66154;45.544;6.756;2024-03-22T16:52:59;87107.78;;;16.15;36.18
60049;BME280;66154;45.544;6.756;2024-03-22T16:58:00;87108.63;;;15.88;48.67
60049;BME280;66154;45.544;6.756;2024-03-22T17:03:03;87108.72;;;15.61;49.00
60049;BME280;66154;45.544;6.756;2024-03-22T17:08:04;87101.28;;;15.32;46.14
60049;BME280;66154;45.544;6.756;2024-03-22T17:13:05;87104.84;;;15.02;50.40
60049;BME280;66154;45.544;6.756;2024-03-22T17:18:06;87100.75;;;14.74;46.04
60049;BME280;66154;45.544;6.756;2024-03-22T17:23:06;87097.66;;;14.48;46.63
60049;BME280;66154;45.544;6.756;2024-03-22T17:28:07;87094.09;;;14.24;47.52
60049;BME280;66154;45.544;6.756;2024-03-22T17:33:08;87093.91;;;14.01;49.88
60049;BME280;66154;45.544;6.756;2024-03-22T17:38:09;87097.38;;;13.80;47.30
60049;BME280;66154;45.544;6.756;2024-03-22T17:43:10;87090.25;;;13.58;48.34
60049;BME280;66154;45.544;6.756;2024-03-22T17:48:10;87086.06;;;13.39;49.88
60049;BME280;66154;45.544;6.756;2024-03-22T17:53:11;87085.69;;;13.19;45.63
60049;BME280;66154;45.544;6.756;2024-03-22T17:58:11;87101.09;;;12.99;47.99
60049;BME280;66154;45.544;6.756;2024-03-22T18:03:12;87104.66;;;12.84;46.86
60049;BME280;66154;45.544;6.756;2024-03-22T18:08:13;87116.56;;;12.66;45.67
60049;BME280;66154;45.544;6.756;2024-03-22T18:13:14;87107.66;;;12.51;50.33
60049;BME280;66154;45.544;6.756;2024-03-22T18:18:15;87113.84;;;12.36;47.25
60049;BME280;66154;45.544;6.756;2024-03-22T18:23:16;87121.03;;;12.23;47.91
60049;BME280;66154;45.544;6.756;2024-03-22T18:28:17;87122.53;;;12.11;46.40
60049;BME280;66154;45.544;6.756;2024-03-22T18:33:18;87123.00;;;11.97;48.65
60049;BME280;66154;45.544;6.756;2024-03-22T18:38:18;87130.16;;;11.84;47.15
60049;BME280;66154;45.544;6.756;2024-03-22T18:43:19;87127.69;;;11.68;47.17
60049;BME280;66154;45.544;6.756;2024-03-22T18:48:20;87126.94;;;11.55;46.88
60049;BME280;66154;45.544;6.756;2024-03-22T18:53:20;87127.97;;;11.45;46.08
60049;BME280;66154;45.544;6.756;2024-03-22T18:58:21;87123.13;;;11.31;44.93
60049;BME280;66154;45.544;6.756;2024-03-22T19:03:21;87127.66;;;11.18;48.90
60049;BME280;66154;45.544;6.756;2024-03-22T19:08:22;87128.69;;;11.08;47.09
60049;BME280;66154;45.544;6.756;2024-03-22T19:13:22;87130.47;;;10.98;48.56
60049;BME280;66154;45.544;6.756;2024-03-22T19:18:23;87131.47;;;10.88;47.38
60049;BME280;66154;45.544;6.756;2024-03-22T19:23:24;87123.91;;;10.77;47.27
60049;BME280;66154;45.544;6.756;2024-03-22T19:28:25;87117.78;;;10.68;46.84
60049;BME280;66154;45.544;6.756;2024-03-22T19:33:25;87130.78;;;10.59;48.67
60049;BME280;66154;45.544;6.756;2024-03-22T19:38:26;87129.50;;;10.51;47.72
60049;BME280;66154;45.544;6.756;2024-03-22T19:43:27;87127.16;;;10.40;46.77
60049;BME280;66154;45.544;6.756;2024-03-22T19:48:29;87145.00;;;10.33;46.75
60049;BME280;66154;45.544;6.756;2024-03-22T19:53:30;87142.22;;;10.24;47.53
60049;BME280;66154;45.544;6.756;2024-03-22T19:58:31;87154.38;;;10.18;48.37
60049;BME280;66154;45.544;6.756;2024-03-22T20:03:31;87166.97;;;10.10;48.08
60049;BME280;66154;45.544;6.756;2024-03-22T20:08:32;87170.53;;;10.00;48.85
60049;BME280;66154;45.544;6.756;2024-03-22T20:13:33;87173.72;;;9.91;48.24
60049;BME280;66154;45.544;6.756;2024-03-22T20:18:33;87177.38;;;9.81;48.00
60049;BME280;66154;45.544;6.756;2024-03-22T20:23:34;87170.06;;;9.73;47.95
60049;BME280;66154;45.544;6.756;2024-03-22T20:28:34;87170.94;;;9.66;49.59
60049;BME280;66154;45.544;6.756;2024-03-22T20:33:34;87173.50;;;9.54;49.09
